Time;durP1;ratioP1;P1;durP2;ratioP2;P2;SDS_P1;SDS_P2;PMS_P1;PMS_P2;Temp;Humidity;BMP_temperature;BMP_pressure;BME280_temperature;BME280_humidity;BME280_pressure;Samples;Min_cycle;Max_cycle;Signal;HPM_P1;HPM_P2
2022/05/12 00:00:56;;;;;;;;;;;11.00;99.90;;;;;;5133252;28;19919;-77
2022/05/12 00:03:21;;;;;;;;;;;10.80;99.90;;;;;;5134704;27;19915;-77
2022/05/12 00:05:47;;;;;;;;;;;10.90;99.90;;;;;;5137041;27;19907;-77
2022/05/12 00:08:13;;;;;;;;;;;11.00;99.90;;;;;;5118181;27;19907;-76
2022/05/12 00:10:40;;;;;;;;;;;11.00;99.90;;;;;;5118320;27;20304;-77
2022/05/12 00:13:06;;;;;;;;;;;11.00;99.90;;;;;;5136690;27;19942;-77
2022/05/12 00:15:33;;;;;;;;;;;11.00;99.90;;;;;;5135909;27;19949;-76
2022/05/12 00:18:02;;;;;;;;;;;11.00;99.90;;;;;;5136726;27;19911;-77
2022/05/12 00:20:28;;;;;;;;;;;10.90;99.90;;;;;;5136016;27;19915;-77
2022/05/12 00:23:05;;;;;;;;;;;10.80;99.90;;;;;;5136519;27;19908;-77
2022/05/12 00:25:31;;;;;;;;;;;10.80;99.90;;;;;;5136007;27;19907;-77
2022/05/12 00:27:56;;;;;;;;;;;10.80;99.90;;;;;;5136275;27;19912;-77
2022/05/12 00:30:22;;;;;;;;;;;10.70;99.90;;;;;;5135660;27;19907;-76
2022/05/12 00:32:47;;;;;;;;;;;10.60;99.90;;;;;;5136097;27;19919;-77
2022/05/12 00:35:15;;;;;;;;;;;10.60;99.90;;;;;;5136230;27;19982;-76
2022/05/12 00:37:40;;;;;;;;;;;10.50;99.90;;;;;;5135725;27;20279;-77
2022/05/12 00:40:06;;;;;;;;;;;10.40;99.90;;;;;;5136052;27;19916;-77
2022/05/12 00:42:32;;;;;;;;;;;10.40;99.90;;;;;;5135574;27;19908;-76
2022/05/12 00:44:57;;;;;;;;;;;10.30;99.90;;;;;;5136241;27;20003;-77
2022/05/12 00:47:23;;;;;;;;;;;10.30;99.90;;;;;;5135356;27;19911;-77
2022/05/12 00:49:50;;;;;;;;;;;10.30;99.90;;;;;;5136151;27;19908;-77
2022/05/12 00:52:18;;;;;;;;;;;10.30;99.90;;;;;;5135831;27;19914;-75
2022/05/12 00:54:49;;;;;;;;;;;10.20;99.90;;;;;;5135954;27;19911;-77
2022/05/12 00:57:17;;;;;;;;;;;10.10;99.90;;;;;;5135406;27;19914;-77
2022/05/12 00:59:43;;;;;;;;;;;10.10;99.90;;;;;;5135616;27;19976;-77
2022/05/12 01:02:10;;;;;;;;;;;10.10;99.90;;;;;;5135777;27;20368;-77
2022/05/12 01:04:36;;;;;;;;;;;10.00;99.90;;;;;;5135053;27;20275;-75
2022/05/12 01:07:01;;;;;;;;;;;9.90;99.90;;;;;;5135721;27;20348;-76
2022/05/12 01:09:27;;;;;;;;;;;9.90;99.90;;;;;;5135156;27;20245;-76
2022/05/12 01:11:54;;;;;;;;;;;9.80;99.90;;;;;;5135888;27;20018;-77
2022/05/12 01:14:19;;;;;;;;;;;9.80;99.90;;;;;;5133652;27;19932;-76
2022/05/12 01:16:53;;;;;;;;;;;9.80;99.90;;;;;;5135637;27;20010;-76
2022/05/12 01:19:23;;;;;;;;;;;9.80;99.90;;;;;;5135247;27;20390;-75
2022/05/12 01:21:49;;;;;;;;;;;9.80;99.90;;;;;;5135495;27;19918;-77
2022/05/12 01:24:15;;;;;;;;;;;9.80;99.90;;;;;;5135450;27;20356;-76
2022/05/12 01:26:41;;;;;;;;;;;9.80;99.90;;;;;;5134696;27;19911;-76
2022/05/12 01:29:07;;;;;;;;;;;9.70;99.90;;;;;;5135326;27;20284;-76
2022/05/12 01:31:34;;;;;;;;;;;9.80;99.90;;;;;;5134624;27;20369;-76
2022/05/12 01:34:00;;;;;;;;;;;9.80;99.90;;;;;;5135189;27;20325;-76
2022/05/12 01:36:25;;;;;;;;;;;9.70;99.90;;;;;;5134690;27;19915;-76
2022/05/12 01:38:51;;;;;;;;;;;9.70;99.90;;;;;;5134911;27;19907;-76
2022/05/12 01:41:16;;;;;;;;;;;9.60;99.90;;;;;;5135111;27;19962;-76
2022/05/12 01:43:42;;;;;;;;;;;9.60;99.90;;;;;;5134309;27;19994;-76
2022/05/12 01:46:08;;;;;;;;;;;9.60;99.90;;;;;;5134831;27;19911;-76
2022/05/12 01:48:34;;;;;;;;;;;9.60;99.90;;;;;;5115796;27;19907;-77
2022/05/12 01:51:00;;;;;;;;;;;9.50;99.90;;;;;;5134744;27;20283;-77
2022/05/12 01:53:26;;;;;;;;;;;9.50;99.90;;;;;;5133882;27;19941;-77
2022/05/12 01:55:51;;;;;;;;;;;9.50;99.90;;;;;;5134812;27;19965;-76
2022/05/12 01:58:18;;;;;;;;;;;9.50;99.90;;;;;;5134605;27;19919;-76
2022/05/12 02:00:44;;;;;;;;;;;9.40;99.90;;;;;;5133990;27;19916;-77
2022/05/12 02:03:09;;;;;;;;;;;9.40;99.90;;;;;;5134452;27;19930;-77
2022/05/12 02:05:36;;;;;;;;;;;9.40;99.90;;;;;;5134110;27;19914;-76
2022/05/12 02:08:02;;;;;;;;;;;9.30;99.90;;;;;;5116046;27;19908;-76
2022/05/12 02:10:29;;;;;;;;;;;9.20;99.90;;;;;;5133688;27;19912;-76
2022/05/12 02:12:55;;;;;;;;;;;9.20;99.90;;;;;;5134184;27;19912;-76
2022/05/12 02:15:21;;;;;;;;;;;9.20;99.90;;;;;;5134424;27;19914;-75
2022/05/12 02:17:49;;;;;;;;;;;9.10;99.90;;;;;;5134036;27;19911;-76
2022/05/12 02:20:15;;;;;;;;;;;9.20;99.90;;;;;;5134261;27;19968;-76
2022/05/12 02:22:41;;;;;;;;;;;9.20;99.90;;;;;;5133800;27;20002;-76
2022/05/12 02:25:07;;;;;;;;;;;9.20;99.90;;;;;;5133786;27;19959;-76
2022/05/12 02:27:32;;;;;;;;;;;9.20;99.90;;;;;;5133576;27;19907;-76
2022/05/12 02:29:58;;;;;;;;;;;9.10;99.90;;;;;;5133948;27;19911;-76
2022/05/12 02:32:27;;;;;;;;;;;9.10;99.90;;;;;;5133883;27;19911;-75
2022/05/12 02:34:53;;;;;;;;;;;9.10;99.90;;;;;;5134161;27;19961;-77
2022/05/12 02:37:18;;;;;;;;;;;9.10;99.90;;;;;;5134139;27;19918;-77
2022/05/12 02:39:44;;;;;;;;;;;9.00;99.90;;;;;;5133696;27;19912;-76
2022/05/12 02:42:10;;;;;;;;;;;9.00;99.90;;;;;;5133692;27;19907;-76
2022/05/12 02:44:36;;;;;;;;;;;8.90;99.90;;;;;;5132979;27;19914;-76
2022/05/12 02:47:03;;;;;;;;;;;9.00;99.90;;;;;;5134015;27;19915;-76
2022/05/12 02:49:29;;;;;;;;;;;8.90;99.90;;;;;;5133355;27;19912;-76
2022/05/12 02:51:54;;;;;;;;;;;8.90;99.90;;;;;;5134303;28;19908;-77
2022/05/12 02:54:20;;;;;;;;;;;8.80;99.90;;;;;;5115615;28;19908;-77
2022/05/12 02:56:45;;;;;;;;;;;8.80;99.90;;;;;;5133273;28;19968;-77
2022/05/12 02:59:12;;;;;;;;;;;8.80;99.90;;;;;;5133873;28;19919;-77
2022/05/12 03:01:38;;;;;;;;;;;8.70;99.90;;;;;;5133107;28;20296;-76
2022/05/12 03:04:04;;;;;;;;;;;8.70;99.90;;;;;;5133779;28;19998;-77
2022/05/12 03:06:30;;;;;;;;;;;8.60;99.90;;;;;;5132996;28;19939;-76
2022/05/12 03:08:55;;;;;;;;;;;8.60;99.90;;;;;;5133663;28;19907;-77
2022/05/12 03:11:21;;;;;;;;;;;8.60;99.90;;;;;;5133828;28;19953;-77
2022/05/12 03:13:49;;;;;;;;;;;8.60;99.90;;;;;;5133144;28;19950;-77
2022/05/12 03:16:16;;;;;;;;;;;8.60;99.90;;;;;;5133552;28;19915;-77
2022/05/12 03:18:42;;;;;;;;;;;8.60;99.90;;;;;;5133121;28;19998;-77
2022/05/12 03:21:09;;;;;;;;;;;8.70;99.90;;;;;;5133426;28;20403;-77
2022/05/12 03:23:35;;;;;;;;;;;8.60;99.90;;;;;;5132853;28;20272;-77
2022/05/12 03:26:00;;;;;;;;;;;8.60;99.90;;;;;;5133390;28;19908;-77
2022/05/12 03:28:26;;;;;;;;;;;8.60;99.90;;;;;;5133483;28;19908;-76
2022/05/12 03:30:52;;;;;;;;;;;8.60;99.90;;;;;;5114860;28;19907;-77
2022/05/12 03:33:18;;;;;;;;;;;8.50;99.90;;;;;;5133688;28;19908;-77
2022/05/12 03:35:45;;;;;;;;;;;8.40;99.90;;;;;;5132943;28;20340;-77
2022/05/12 03:38:10;;;;;;;;;;;8.40;99.90;;;;;;5135358;27;19911;-77
2022/05/12 03:40:36;;;;;;;;;;;8.40;99.90;;;;;;5136768;27;20268;-77
2022/05/12 03:43:01;;;;;;;;;;;8.40;99.90;;;;;;5137271;27;19959;-77
2022/05/12 03:45:27;;;;;;;;;;;8.40;99.90;;;;;;5136765;27;19908;-75
2022/05/12 03:47:55;;;;;;;;;;;8.50;99.90;;;;;;5136350;27;20018;-77
2022/05/12 03:50:22;;;;;;;;;;;8.50;99.90;;;;;;5118814;27;19908;-78
2022/05/12 03:52:49;;;;;;;;;;;8.50;99.90;;;;;;5136722;27;19949;-77
2022/05/12 03:55:16;;;;;;;;;;;8.50;99.90;;;;;;5137155;27;19914;-77
2022/05/12 03:57:42;;;;;;;;;;;8.60;99.90;;;;;;5136377;27;19920;-77
2022/05/12 04:00:09;;;;;;;;;;;8.50;99.90;;;;;;5137132;27;19911;-77
2022/05/12 04:02:34;;;;;;;;;;;8.50;99.90;;;;;;5136468;27;19934;-76
2022/05/12 04:05:00;;;;;;;;;;;8.50;99.90;;;;;;5137341;27;20281;-77
2022/05/12 04:07:26;;;;;;;;;;;8.50;99.90;;;;;;5136697;27;20286;-77
2022/05/12 04:09:51;;;;;;;;;;;8.50;99.90;;;;;;5136623;27;20379;-77
2022/05/12 04:12:17;;;;;;;;;;;8.40;99.90;;;;;;5136545;27;19915;-77
2022/05/12 04:14:43;;;;;;;;;;;8.40;99.90;;;;;;5136192;27;19911;-77
2022/05/12 04:17:12;;;;;;;;;;;8.40;99.90;;;;;;5136353;27;19907;-77
2022/05/12 04:19:39;;;;;;;;;;;8.40;99.90;;;;;;5136079;27;19916;-76
2022/05/12 04:22:04;;;;;;;;;;;8.40;99.90;;;;;;5136344;27;20398;-77
2022/05/12 04:24:30;;;;;;;;;;;8.40;99.90;;;;;;5136620;27;19907;-76
2022/05/12 04:26:56;;;;;;;;;;;8.40;99.90;;;;;;5135936;27;20272;-77
2022/05/12 04:29:21;;;;;;;;;;;8.40;99.90;;;;;;5136368;27;19959;-78
2022/05/12 04:31:47;;;;;;;;;;;8.40;99.90;;;;;;5136161;27;19907;-77
2022/05/12 04:36:57;;;;;;;;;;;8.40;99.90;;;;;;5135962;27;19956;-77
2022/05/12 04:39:22;;;;;;;;;;;8.40;99.90;;;;;;5136593;27;19911;-77
2022/05/12 04:41:48;;;;;;;;;;;8.40;99.90;;;;;;5135662;27;19930;-77
2022/05/12 04:44:14;;;;;;;;;;;8.40;99.90;;;;;;5136204;27;19907;-77
2022/05/12 04:46:40;;;;;;;;;;;8.40;99.90;;;;;;5135142;27;20013;-76
2022/05/12 04:49:07;;;;;;;;;;;8.40;99.90;;;;;;5135788;27;20018;-77
2022/05/12 04:51:33;;;;;;;;;;;8.40;99.90;;;;;;5117474;27;19907;-75
2022/05/12 04:53:59;;;;;;;;;;;8.40;99.90;;;;;;5135810;27;19911;-77
2022/05/12 04:56:25;;;;;;;;;;;8.50;99.90;;;;;;5135893;27;19908;-77
2022/05/12 04:58:50;;;;;;;;;;;8.60;99.90;;;;;;5135098;27;19920;-77
2022/05/12 05:01:16;;;;;;;;;;;8.60;99.90;;;;;;5136025;27;19918;-77
2022/05/12 05:03:42;;;;;;;;;;;8.80;99.90;;;;;;5135135;27;19911;-76
2022/05/12 05:06:08;;;;;;;;;;;8.80;99.90;;;;;;5135954;27;19908;-77
2022/05/12 05:08:34;;;;;;;;;;;8.90;99.90;;;;;;5117078;27;19945;-75
2022/05/12 05:10:59;;;;;;;;;;;8.90;99.90;;;;;;5135788;27;19965;-76
2022/05/12 05:13:25;;;;;;;;;;;8.90;99.90;;;;;;5117239;27;20344;-76
2022/05/12 05:15:51;;;;;;;;;;;8.90;99.90;;;;;;5134808;27;19947;-76
2022/05/12 05:18:17;;;;;;;;;;;9.00;99.90;;;;;;5135356;27;19907;-76
2022/05/12 05:20:44;;;;;;;;;;;9.00;99.90;;;;;;5134846;27;19962;-76
2022/05/12 05:23:11;;;;;;;;;;;9.10;99.90;;;;;;5135410;27;19911;-77
2022/05/12 05:25:37;;;;;;;;;;;9.30;99.90;;;;;;5134215;27;20379;-75
2022/05/12 05:28:03;;;;;;;;;;;9.40;99.90;;;;;;5134700;27;19908;-76
2022/05/12 05:30:28;;;;;;;;;;;9.50;99.90;;;;;;5134731;27;20355;-77
2022/05/12 05:32:54;;;;;;;;;;;9.60;99.90;;;;;;5133817;27;19908;-77
2022/05/12 05:35:20;;;;;;;;;;;9.70;99.90;;;;;;5134855;27;19914;-77
2022/05/12 05:37:47;;;;;;;;;;;9.80;99.90;;;;;;5134259;27;19908;-76
2022/05/12 05:40:14;;;;;;;;;;;10.00;99.90;;;;;;5134983;27;19976;-77
2022/05/12 05:42:41;;;;;;;;;;;9.90;99.90;;;;;;5134300;27;19912;-76
2022/05/12 05:45:15;;;;;;;;;;;10.00;99.90;;;;;;5134994;27;19908;-77
2022/05/12 05:47:44;;;;;;;;;;;9.90;99.90;;;;;;5133993;27;19908;-76
2022/05/12 05:50:09;;;;;;;;;;;9.90;99.90;;;;;;5134581;27;19907;-77
2022/05/12 05:55:19;;;;;;;;;;;10.10;99.90;;;;;;5134592;27;20275;-77
2022/05/12 05:57:45;;;;;;;;;;;10.10;99.90;;;;;;5134100;27;19919;-76
2022/05/12 06:00:12;;;;;;;;;;;10.10;99.90;;;;;;5133687;27;20022;-76
2022/05/12 06:02:38;;;;;;;;;;;10.10;99.90;;;;;;5133702;27;20249;-76
2022/05/12 06:05:04;;;;;;;;;;;10.00;99.90;;;;;;5133988;27;19921;-77
2022/05/12 06:07:29;;;;;;;;;;;10.10;99.90;;;;;;5134610;27;19911;-77
2022/05/12 06:09:55;;;;;;;;;;;10.00;99.90;;;;;;5133951;27;20249;-77
2022/05/12 06:12:20;;;;;;;;;;;10.00;99.90;;;;;;5134317;27;19998;-77
2022/05/12 06:14:46;;;;;;;;;;;9.90;99.90;;;;;;5133612;27;19908;-77
2022/05/12 06:17:12;;;;;;;;;;;9.90;99.90;;;;;;5134058;27;20445;-77
2022/05/12 06:19:37;;;;;;;;;;;9.90;99.90;;;;;;5134023;27;19912;-75
2022/05/12 06:22:03;;;;;;;;;;;10.10;99.90;;;;;;5134154;27;20000;-77
2022/05/12 06:24:28;;;;;;;;;;;10.10;99.90;;;;;;5115428;27;20260;-76
2022/05/12 06:26:54;;;;;;;;;;;10.30;99.90;;;;;;5133413;27;19914;-76
2022/05/12 06:29:20;;;;;;;;;;;10.50;99.90;;;;;;5134096;27;20263;-77
2022/05/12 06:31:47;;;;;;;;;;;10.80;99.90;;;;;;5133380;27;19908;-77
2022/05/12 06:34:13;;;;;;;;;;;11.00;99.90;;;;;;5134271;27;19908;-77
2022/05/12 06:36:39;;;;;;;;;;;11.20;99.90;;;;;;5133929;27;19908;-77
2022/05/12 06:39:05;;;;;;;;;;;11.50;99.90;;;;;;5133424;27;19908;-77
2022/05/12 06:41:32;;;;;;;;;;;11.80;99.90;;;;;;5133805;27;19915;-78
2022/05/12 06:43:57;;;;;;;;;;;11.90;99.90;;;;;;5133037;27;20253;-77
2022/05/12 06:46:25;;;;;;;;;;;11.90;99.90;;;;;;5133894;27;19911;-77
2022/05/12 06:48:51;;;;;;;;;;;11.80;99.90;;;;;;5132707;27;19922;-77
2022/05/12 06:51:17;;;;;;;;;;;11.90;99.90;;;;;;5133449;28;19907;-77
2022/05/12 06:53:42;;;;;;;;;;;11.90;99.90;;;;;;5133132;28;19932;-77
2022/05/12 06:56:08;;;;;;;;;;;11.80;99.90;;;;;;5133155;28;19911;-77
2022/05/12 06:58:34;;;;;;;;;;;11.90;99.90;;;;;;5133368;28;20348;-77
2022/05/12 07:01:02;;;;;;;;;;;11.90;99.90;;;;;;5132803;28;20423;-76
2022/05/12 07:03:28;;;;;;;;;;;12.00;99.90;;;;;;5133510;28;19911;-77
2022/05/12 07:05:53;;;;;;;;;;;12.10;99.90;;;;;;5132460;28;19911;-77
2022/05/12 07:08:19;;;;;;;;;;;12.30;99.90;;;;;;5133433;28;19907;-77
2022/05/12 07:10:45;;;;;;;;;;;12.30;99.90;;;;;;5132843;28;20009;-76
2022/05/12 07:13:18;;;;;;;;;;;12.30;99.90;;;;;;5137196;27;20026;-77
2022/05/12 07:15:43;;;;;;;;;;;12.40;99.90;;;;;;5137329;27;20352;-75
2022/05/12 07:18:09;;;;;;;;;;;12.30;99.90;;;;;;5136749;27;19932;-76
2022/05/12 07:28:47;;;;;;;;;;;12.50;99.90;;;;;;5136755;27;19915;-75
2022/05/12 07:31:13;;;;;;;;;;;12.50;99.90;;;;;;5136799;27;19907;-76
2022/05/12 07:33:40;;;;;;;;;;;12.50;99.90;;;;;;5136910;27;19952;-76
2022/05/12 07:36:13;;;;;;;;;;;12.50;99.90;;;;;;5136166;27;19907;-77
2022/05/12 07:38:39;;;;;;;;;;;12.60;99.90;;;;;;5136920;27;19911;-76
2022/05/12 07:41:07;;;;;;;;;;;12.70;99.90;;;;;;5136034;27;19934;-76
2022/05/12 07:43:33;;;;;;;;;;;12.70;99.90;;;;;;5136336;27;20003;-76
2022/05/12 07:45:59;;;;;;;;;;;12.70;99.90;;;;;;5136155;27;20002;-76
2022/05/12 07:48:24;;;;;;;;;;;12.80;99.90;;;;;;5135754;27;19998;-76
2022/05/12 07:50:50;;;;;;;;;;;12.90;99.90;;;;;;5136293;27;19930;-76
2022/05/12 07:53:16;;;;;;;;;;;13.00;99.90;;;;;;5136606;27;19998;-77
2022/05/12 07:55:41;;;;;;;;;;;13.00;99.90;;;;;;5136139;27;20283;-77
2022/05/12 07:58:07;;;;;;;;;;;13.00;99.90;;;;;;5135422;27;19931;-77
2022/05/12 08:00:33;;;;;;;;;;;12.90;99.90;;;;;;5136385;27;20368;-76
2022/05/12 08:02:59;;;;;;;;;;;12.90;99.90;;;;;;5134160;27;20558;-76
2022/05/12 08:05:25;;;;;;;;;;;12.90;99.90;;;;;;5137786;27;20040;-76
2022/05/12 08:07:52;;;;;;;;;;;13.00;99.90;;;;;;5136553;27;19908;-78
2022/05/12 08:10:18;;;;;;;;;;;13.30;99.90;;;;;;5136598;27;19908;-77
2022/05/12 08:12:44;;;;;;;;;;;13.60;99.90;;;;;;5136130;27;19915;-77
2022/05/12 08:15:09;;;;;;;;;;;13.80;99.90;;;;;;5135699;27;19907;-76
2022/05/12 08:17:36;;;;;;;;;;;13.80;99.90;;;;;;5135818;27;20371;-77
2022/05/12 08:20:05;;;;;;;;;;;13.90;99.90;;;;;;5135245;27;19912;-78
2022/05/12 08:22:30;;;;;;;;;;;13.90;99.90;;;;;;5136286;27;19911;-79
2022/05/12 08:24:56;;;;;;;;;;;13.90;99.90;;;;;;5134866;27;19907;-79
2022/05/12 08:27:22;;;;;;;;;;;13.70;99.90;;;;;;5136582;27;20311;-79
2022/05/12 08:29:48;;;;;;;;;;;13.90;99.90;;;;;;5135831;27;19966;-76
2022/05/12 08:32:13;;;;;;;;;;;13.90;99.90;;;;;;5117593;27;19951;-79
2022/05/12 08:34:39;;;;;;;;;;;14.00;99.90;;;;;;5136177;27;20004;-78
2022/05/12 08:37:05;;;;;;;;;;;13.90;99.90;;;;;;5135447;27;19908;-78
2022/05/12 08:39:30;;;;;;;;;;;13.90;99.90;;;;;;5135717;27;20387;-79
2022/05/12 08:41:58;;;;;;;;;;;13.90;99.90;;;;;;5135417;27;20376;-78
2022/05/12 08:44:24;;;;;;;;;;;13.80;99.90;;;;;;5136083;27;19915;-79
2022/05/12 08:46:53;;;;;;;;;;;13.90;99.90;;;;;;5134963;27;19907;-77
2022/05/12 08:49:34;;;;;;;;;;;14.10;99.90;;;;;;5134828;27;20359;-78
2022/05/12 08:52:06;;;;;;;;;;;14.10;99.90;;;;;;5134625;27;19915;-78
2022/05/12 08:54:34;;;;;;;;;;;14.10;99.90;;;;;;5135153;27;19955;-79
2022/05/12 08:57:03;;;;;;;;;;;14.20;99.90;;;;;;5135066;27;20013;-78
2022/05/12 08:59:29;;;;;;;;;;;14.20;99.90;;;;;;5135556;27;19924;-80
2022/05/12 09:02:17;;;;;;;;;;;14.30;99.90;;;;;;5134710;27;19912;-78
2022/05/12 09:04:43;;;;;;;;;;;14.10;99.90;;;;;;5135537;27;19908;-78
2022/05/12 09:07:14;;;;;;;;;;;14.00;99.90;;;;;;5135201;27;20100;-79
2022/05/12 09:09:44;;;;;;;;;;;14.00;99.90;;;;;;5135111;27;20019;-77
2022/05/12 09:12:19;;;;;;;;;;;14.10;99.90;;;;;;5116336;27;20065;-79
2022/05/12 09:14:52;;;;;;;;;;;14.20;99.90;;;;;;5135112;27;19907;-79
2022/05/12 09:17:22;;;;;;;;;;;14.30;99.90;;;;;;5132299;27;19907;-78
2022/05/12 09:19:48;;;;;;;;;;;14.30;99.90;;;;;;5141194;27;19911;-79
2022/05/12 09:22:14;;;;;;;;;;;14.40;99.90;;;;;;5138121;27;20399;-79
2022/05/12 09:24:41;;;;;;;;;;;14.50;99.90;;;;;;5116188;27;19958;-79
2022/05/12 09:27:11;;;;;;;;;;;14.50;99.90;;;;;;5134612;27;19911;-79
2022/05/12 09:29:47;;;;;;;;;;;14.60;99.90;;;;;;5134660;27;20361;-79
2022/05/12 09:32:13;;;;;;;;;;;14.50;99.90;;;;;;5134217;27;20364;-79
2022/05/12 09:34:40;;;;;;;;;;;14.30;99.90;;;;;;5134099;27;20029;-78
2022/05/12 09:37:21;;;;;;;;;;;14.30;99.90;;;;;;5133410;27;19915;-80
2022/05/12 09:39:48;;;;;;;;;;;14.10;99.90;;;;;;5134628;27;19912;-81
2022/05/12 09:42:17;;;;;;;;;;;14.00;99.90;;;;;;5134101;27;19968;-80
2022/05/12 09:44:54;;;;;;;;;;;13.90;99.90;;;;;;5134563;27;20356;-77
2022/05/12 09:47:20;;;;;;;;;;;13.80;99.90;;;;;;5116045;27;19941;-79
2022/05/12 09:49:46;;;;;;;;;;;13.90;99.90;;;;;;5134503;27;19959;-79
2022/05/12 09:52:27;;;;;;;;;;;13.90;99.90;;;;;;5133885;27;19936;-80
2022/05/12 09:55:27;;;;;;;;;;;13.90;99.90;;;;;;5133403;27;19908;-76
2022/05/12 09:58:02;;;;;;;;;;;13.90;99.90;;;;;;5109613;27;19918;-78
2022/05/12 10:00:30;;;;;;;;;;;14.20;99.90;;;;;;5110283;28;19920;-79
2022/05/12 10:09:07;;;;;;;;;;;14.80;99.90;;;;;;5109595;28;19957;-78
2022/05/12 10:11:35;;;;;;;;;;;15.10;99.90;;;;;;5110276;28;19961;-80
2022/05/12 10:14:01;;;;;;;;;;;15.40;99.90;;;;;;5109559;28;19916;-77
2022/05/12 10:16:29;;;;;;;;;;;15.60;99.90;;;;;;5110152;28;19916;-78
2022/05/12 10:18:56;;;;;;;;;;;15.50;99.90;;;;;;5109266;28;19919;-75
2022/05/12 10:21:28;;;;;;;;;;;15.70;99.90;;;;;;5109545;28;19912;-77
2022/05/12 10:24:04;;;;;;;;;;;15.80;99.90;;;;;;5109814;28;19912;-75
2022/05/12 10:27:02;;;;;;;;;;;15.90;99.90;;;;;;5109799;28;19908;-77
2022/05/12 10:29:38;;;;;;;;;;;16.10;99.90;;;;;;5097154;28;19908;-77
2022/05/12 10:32:03;;;;;;;;;;;16.10;99.90;;;;;;5109403;28;19916;-77
2022/05/12 10:34:48;;;;;;;;;;;16.00;99.90;;;;;;5110222;28;19907;-76
2022/05/12 10:37:49;;;;;;;;;;;16.00;99.90;;;;;;5109186;28;19912;-77
2022/05/12 10:40:18;;;;;;;;;;;16.10;99.90;;;;;;5086420;28;19922;-76
2022/05/12 10:42:57;;;;;;;;;;;16.20;99.90;;;;;;5105227;28;19916;-77
2022/05/12 10:45:28;;;;;;;;;;;16.30;99.90;;;;;;5109592;28;19939;-77
2022/05/12 10:48:12;;;;;;;;;;;16.50;99.90;;;;;;5109218;28;20363;-75
2022/05/12 10:50:57;;;;;;;;;;;16.40;99.90;;;;;;5109587;28;19912;-77
2022/05/12 10:53:41;;;;;;;;;;;16.40;99.90;;;;;;5109247;28;19912;-78
2022/05/12 10:56:20;;;;;;;;;;;16.50;99.90;;;;;;5108864;28;19920;-78
2022/05/12 10:58:52;;;;;;;;;;;16.60;99.90;;;;;;5109164;28;19908;-78
2022/05/12 11:01:23;;;;;;;;;;;16.50;99.90;;;;;;5108561;28;20317;-77
2022/05/12 11:03:54;;;;;;;;;;;16.40;99.90;;;;;;5109160;28;19908;-78
2022/05/12 11:06:28;;;;;;;;;;;16.20;99.90;;;;;;5108633;28;19954;-77
2022/05/12 11:08:59;;;;;;;;;;;16.20;99.90;;;;;;5097982;28;19908;-77
2022/05/12 11:11:31;;;;;;;;;;;16.00;99.90;;;;;;5096025;28;19967;-78
2022/05/12 11:14:00;;;;;;;;;;;15.80;99.90;;;;;;5095201;28;19915;-75
2022/05/12 11:16:30;;;;;;;;;;;15.80;99.90;;;;;;5094096;28;20365;-77
2022/05/12 11:19:06;;;;;;;;;;;15.70;99.90;;;;;;5095063;28;20285;-75
2022/05/12 11:21:34;;;;;;;;;;;15.60;99.90;;;;;;5095533;28;19919;-78
2022/05/12 11:24:11;;;;;;;;;;;15.50;99.90;;;;;;5094584;28;19908;-77
2022/05/12 11:26:37;;;;;;;;;;;15.60;99.90;;;;;;5095164;28;19916;-77
2022/05/12 11:32:05;;;;;;;;;;;15.60;99.90;;;;;;5094525;28;19953;-75
2022/05/12 11:34:32;;;;;;;;;;;15.80;99.90;;;;;;5095194;28;19912;-78
2022/05/12 11:37:18;;;;;;;;;;;15.80;99.90;;;;;;5094190;28;19947;-75
2022/05/12 11:39:44;;;;;;;;;;;16.00;99.90;;;;;;5094904;28;19919;-77
2022/05/12 11:42:09;;;;;;;;;;;16.10;99.90;;;;;;5094447;28;19908;-79
2022/05/12 11:44:43;;;;;;;;;;;16.10;99.90;;;;;;5094872;28;19908;-77
2022/05/12 11:47:24;;;;;;;;;;;16.20;99.90;;;;;;5094142;28;19908;-76
2022/05/12 11:49:59;;;;;;;;;;;16.10;99.90;;;;;;5094718;28;19909;-78
2022/05/12 11:52:41;;;;;;;;;;;15.90;99.90;;;;;;5093513;28;20268;-77
2022/05/12 11:55:18;;;;;;;;;;;16.00;99.90;;;;;;5094385;28;20332;-77
2022/05/12 11:57:55;;;;;;;;;;;16.10;99.90;;;;;;5094207;28;20030;-79
2022/05/12 12:00:35;;;;;;;;;;;16.30;99.90;;;;;;5094006;28;19963;-78
2022/05/12 12:03:22;;;;;;;;;;;16.40;99.90;;;;;;5093972;28;19908;-77
2022/05/12 12:05:47;;;;;;;;;;;16.40;99.90;;;;;;5090509;28;19995;-76
2022/05/12 12:08:33;;;;;;;;;;;16.50;99.90;;;;;;5093386;28;19943;-77
2022/05/12 12:11:14;;;;;;;;;;;16.60;99.90;;;;;;5093881;28;19915;-75
2022/05/12 12:13:43;;;;;;;;;;;16.70;99.90;;;;;;5094434;28;19931;-78
2022/05/12 12:16:10;;;;;;;;;;;16.90;99.90;;;;;;5093620;28;19916;-78
2022/05/12 12:18:38;;;;;;;;;;;17.00;99.90;;;;;;5094182;28;20027;-77
2022/05/12 12:21:22;;;;;;;;;;;17.10;99.90;;;;;;5091390;28;19959;-78
2022/05/12 12:24:03;;;;;;;;;;;17.20;99.90;;;;;;5094100;28;19912;-77
2022/05/12 12:26:36;;;;;;;;;;;17.30;99.90;;;;;;5093912;28;20392;-78
2022/05/12 12:29:08;;;;;;;;;;;17.30;99.90;;;;;;5093127;28;19916;-76
2022/05/12 12:31:37;;;;;;;;;;;17.20;99.90;;;;;;5093777;28;19959;-78
2022/05/12 12:34:21;;;;;;;;;;;17.30;99.90;;;;;;5093340;28;20256;-76
2022/05/12 12:36:46;;;;;;;;;;;17.40;99.90;;;;;;5093579;28;19924;-78
2022/05/12 12:39:28;;;;;;;;;;;17.80;99.90;;;;;;5092896;28;19912;-78
2022/05/12 12:42:04;;;;;;;;;;;18.00;99.90;;;;;;5094228;28;19908;-78
2022/05/12 12:44:29;;;;;;;;;;;17.90;99.90;;;;;;5093938;28;20355;-78
2022/05/12 12:46:55;;;;;;;;;;;17.90;99.90;;;;;;5093399;28;19957;-78
2022/05/12 12:49:20;;;;;;;;;;;18.00;99.90;;;;;;5092401;28;20436;-78
2022/05/12 12:51:52;;;;;;;;;;;18.20;99.90;;;;;;5093123;28;20365;-78
2022/05/12 12:57:16;;;;;;;;;;;17.90;99.90;;;;;;5092485;28;19927;-79
2022/05/12 12:59:48;;;;;;;;;;;17.80;99.90;;;;;;5093241;28;19970;-80
2022/05/12 13:02:40;;;;;;;;;;;17.80;99.90;;;;;;5092946;28;19908;-79
2022/05/12 13:05:12;;;;;;;;;;;17.80;99.90;;;;;;5092796;28;20394;-79
2022/05/12 13:07:38;;;;;;;;;;;17.70;99.90;;;;;;5093295;28;19915;-80
2022/05/12 13:10:06;;;;;;;;;;;17.40;99.90;;;;;;5092501;28;20250;-78
2022/05/12 13:12:32;;;;;;;;;;;17.40;99.90;;;;;;5093299;28;19912;-79
2022/05/12 13:15:00;;;;;;;;;;;17.30;99.90;;;;;;5092943;28;19912;-80
2022/05/12 13:17:31;;;;;;;;;;;17.30;99.90;;;;;;5092899;28;19919;-78
2022/05/12 13:19:58;;;;;;;;;;;17.30;99.90;;;;;;5091594;28;19995;-77
2022/05/12 13:22:45;;;;;;;;;;;17.10;99.90;;;;;;5092441;28;19908;-77
2022/05/12 13:25:13;;;;;;;;;;;16.90;99.90;;;;;;5092413;28;19931;-77
2022/05/12 13:27:40;;;;;;;;;;;16.60;99.90;;;;;;5092999;28;19915;-76
2022/05/12 13:30:12;;;;;;;;;;;16.50;99.90;;;;;;5092221;28;20264;-77
2022/05/12 13:32:37;;;;;;;;;;;16.40;99.90;;;;;;5092269;28;19915;-77
2022/05/12 13:35:05;;;;;;;;;;;16.40;99.90;;;;;;5092561;28;19908;-76
2022/05/12 13:37:31;;;;;;;;;;;16.40;99.90;;;;;;5091535;28;19912;-76
2022/05/12 13:40:00;;;;;;;;;;;16.40;99.90;;;;;;5092919;28;19919;-76
2022/05/12 13:42:31;;;;;;;;;;;16.30;99.90;;;;;;5092071;28;20436;-77
2022/05/12 13:44:59;;;;;;;;;;;16.10;99.90;;;;;;5092811;28;19912;-76
2022/05/12 13:47:30;;;;;;;;;;;16.00;99.90;;;;;;5091938;28;19915;-77
2022/05/12 13:49:56;;;;;;;;;;;16.00;99.90;;;;;;5093017;28;20007;-76
2022/05/12 13:52:24;;;;;;;;;;;16.10;99.90;;;;;;5092309;28;20655;-76
2022/05/12 13:54:49;;;;;;;;;;;16.20;99.90;;;;;;5092417;28;19997;-76
2022/05/12 13:57:16;;;;;;;;;;;16.30;99.90;;;;;;5090547;28;19920;-76
2022/05/12 13:59:59;;;;;;;;;;;16.30;99.90;;;;;;5092603;28;19912;-76
2022/05/12 14:02:35;;;;;;;;;;;16.50;99.90;;;;;;5092207;28;19917;-76
2022/05/12 14:05:02;;;;;;;;;;;16.80;99.90;;;;;;5092618;28;19951;-76
2022/05/12 14:07:29;;;;;;;;;;;17.00;99.90;;;;;;5091851;28;20349;-76
2022/05/12 14:09:56;;;;;;;;;;;17.10;99.90;;;;;;5092608;28;19914;-77
2022/05/12 14:12:23;;;;;;;;;;;17.20;99.90;;;;;;5092052;28;19908;-76
2022/05/12 14:20:23;;;;;;;;;;;17.00;99.90;;;;;;5070150;28;19965;-77
2022/05/12 14:22:49;;;;;;;;;;;17.00;99.90;;;;;;5092343;28;19955;-77
2022/05/12 14:25:15;;;;;;;;;;;17.00;99.90;;;;;;5091445;28;19949;-77
2022/05/12 14:27:41;;;;;;;;;;;16.90;99.90;;;;;;5092335;28;19908;-77
2022/05/12 14:30:07;;;;;;;;;;;17.00;99.90;;;;;;5092203;28;19961;-77
2022/05/12 14:32:37;;;;;;;;;;;17.20;99.90;;;;;;5091909;28;19912;-78
2022/05/12 14:35:03;;;;;;;;;;;17.30;99.90;;;;;;5092462;28;19908;-78
2022/05/12 14:37:31;;;;;;;;;;;17.30;99.90;;;;;;5091959;28;19960;-78
2022/05/12 14:39:56;;;;;;;;;;;17.30;99.90;;;;;;5092177;28;19916;-77
2022/05/12 14:42:22;;;;;;;;;;;17.50;99.90;;;;;;5091713;28;19912;-77
2022/05/12 14:44:48;;;;;;;;;;;17.70;99.90;;;;;;5095905;28;19994;-78
2022/05/12 14:47:17;;;;;;;;;;;17.80;99.90;;;;;;5095495;28;20273;-77
2022/05/12 14:49:45;;;;;;;;;;;17.80;99.90;;;;;;5095854;28;20341;-78
2022/05/12 14:52:13;;;;;;;;;;;17.70;99.90;;;;;;5095348;28;19908;-77
2022/05/12 14:54:41;;;;;;;;;;;17.40;99.90;;;;;;5096129;28;20012;-77
2022/05/12 14:57:07;;;;;;;;;;;17.40;99.90;;;;;;5095420;28;20292;-77
2022/05/12 14:59:32;;;;;;;;;;;17.10;99.90;;;;;;5095487;28;19962;-77